createdAt,value
2018-12-26T00:01:16.777Z,10.10
2018-12-26T00:03:48.313Z,9.70
2018-12-26T00:06:19.122Z,10.90
2018-12-26T00:08:49.880Z,8.80
2018-12-26T00:11:20.840Z,8.67
2018-12-26T00:13:51.892Z,10.73
2018-12-26T00:16:22.911Z,8.77
2018-12-26T00:18:53.897Z,9.87
2018-12-26T00:21:25.415Z,8.20
2018-12-26T00:23:56.586Z,8.90
2018-12-26T00:26:27.758Z,9.40
2018-12-26T00:28:58.797Z,8.27
2018-12-26T00:31:29.780Z,9.20
2018-12-26T00:34:00.541Z,9.97
2018-12-26T00:36:31.757Z,8.87
2018-12-26T00:39:02.890Z,8.20
2018-12-26T00:41:34.165Z,8.03
2018-12-26T00:44:05.059Z,10.80
2018-12-26T00:46:36.101Z,9.03
2018-12-26T00:49:07.220Z,11.50
2018-12-26T00:51:38.660Z,9.97
2018-12-26T00:54:09.676Z,9.00
2018-12-26T00:56:40.643Z,8.23
2018-12-26T00:59:11.881Z,9.37
2018-12-26T01:01:43.593Z,8.50
2018-12-26T01:04:15.020Z,10.73
2018-12-26T01:06:46.594Z,9.43
2018-12-26T01:09:17.820Z,10.20
2018-12-26T01:11:48.573Z,8.37
2018-12-26T01:14:19.705Z,10.57
2018-12-26T01:16:50.844Z,9.80
2018-12-26T01:19:21.853Z,8.07
2018-12-26T01:21:53.164Z,7.73
2018-12-26T01:24:24.808Z,9.50
2018-12-26T01:26:55.804Z,7.50
2018-12-26T01:29:26.821Z,8.27
2018-12-26T01:31:58.645Z,10.13
2018-12-26T01:34:29.717Z,10.70
2018-12-26T01:37:00.559Z,10.13
2018-12-26T01:39:31.661Z,11.63
2018-12-26T01:42:02.962Z,11.07
2018-12-26T01:44:33.769Z,11.70
2018-12-26T01:47:04.849Z,11.37
2018-12-26T01:49:36.058Z,12.33
2018-12-26T01:52:07.068Z,11.93
2018-12-26T01:54:37.934Z,11.60
2018-12-26T01:57:08.775Z,13.63
2018-12-26T01:59:40.100Z,16.23
2018-12-26T02:02:11.418Z,19.50
2018-12-26T02:04:42.207Z,16.30
2018-12-26T02:07:13.534Z,18.63
2018-12-26T02:09:44.651Z,15.93
2018-12-26T02:12:15.476Z,16.80
2018-12-26T02:14:46.597Z,21.97
2018-12-26T02:17:17.871Z,23.37
2018-12-26T02:19:48.903Z,24.37
2018-12-26T02:22:19.914Z,21.83
2018-12-26T02:24:50.998Z,21.00
2018-12-26T02:27:22.074Z,23.20
2018-12-26T02:29:53.228Z,25.10
2018-12-26T02:32:24.385Z,24.23
2018-12-26T02:34:55.477Z,22.80
2018-12-26T02:37:46.954Z,23.63
2018-12-26T02:40:18.635Z,24.40
2018-12-26T02:42:49.416Z,22.23
2018-12-26T02:45:20.698Z,22.93
2018-12-26T02:47:52.078Z,23.80
2018-12-26T02:50:23.114Z,23.53
2018-12-26T02:55:44.528Z,44.47
2018-12-26T02:58:15.591Z,105.17
2018-12-26T03:00:46.651Z,129.37
2018-12-26T03:09:58.310Z,49.40
2018-12-26T03:15:31.530Z,58.27
2018-12-26T03:18:02.903Z,44.07
2018-12-26T03:20:34.256Z,39.37
2018-12-26T03:23:05.274Z,32.07
2018-12-26T03:25:36.305Z,41.87
2018-12-26T03:28:07.398Z,55.93
2018-12-26T03:30:38.876Z,32.83
2018-12-26T03:33:10.133Z,62.87
2018-12-26T03:35:41.675Z,212.53
2018-12-26T03:38:12.510Z,38.03
2018-12-26T03:40:43.681Z,117.10
2018-12-26T03:43:15.039Z,67.23
2018-12-26T03:45:46.215Z,181.70
2018-12-26T03:48:18.072Z,88.73
2018-12-26T03:50:49.021Z,35.83
2018-12-26T03:53:20.720Z,76.37
2018-12-26T03:55:51.687Z,88.17
2018-12-26T03:58:22.857Z,69.33
2018-12-26T04:00:54.331Z,120.53
2018-12-26T04:03:25.201Z,250.53
2018-12-26T04:05:56.227Z,78.77
2018-12-26T04:08:27.352Z,124.97
2018-12-26T04:10:58.219Z,33.70
2018-12-26T04:13:29.705Z,75.47
2018-12-26T04:16:00.878Z,74.17
2018-12-26T04:18:32.257Z,840.30
2018-12-26T04:21:03.604Z,540.80
2018-12-26T04:23:34.693Z,150.00
2018-12-26T04:26:05.830Z,77.60
2018-12-26T04:28:37.000Z,70.20
2018-12-26T04:31:07.802Z,120.30
2018-12-26T04:33:38.588Z,165.97
2018-12-26T04:36:09.635Z,139.77
2018-12-26T04:38:40.694Z,49.90
2018-12-26T04:41:11.725Z,50.20
2018-12-26T04:43:42.600Z,46.33
2018-12-26T04:46:13.686Z,117.70
2018-12-26T04:48:44.736Z,94.43
2018-12-26T04:51:15.738Z,43.87
2018-12-26T04:53:47.097Z,33.93
2018-12-26T04:56:18.414Z,60.10
2018-12-26T04:58:49.483Z,61.40
2018-12-26T05:01:20.826Z,60.10
2018-12-26T05:03:51.918Z,89.70
2018-12-26T05:06:22.991Z,37.37
2018-12-26T05:08:54.297Z,36.90
2018-12-26T05:11:25.298Z,34.70
2018-12-26T05:13:56.459Z,39.17
2018-12-26T05:16:27.534Z,45.67
2018-12-26T05:18:58.705Z,72.63
2018-12-26T05:21:31.027Z,44.50
2018-12-26T05:24:05.345Z,43.20
2018-12-26T05:26:36.460Z,55.27
2018-12-26T05:29:07.500Z,48.27
2018-12-26T05:31:38.284Z,49.47
2018-12-26T05:34:09.723Z,41.63
2018-12-26T05:36:40.811Z,78.70
2018-12-26T05:39:11.856Z,55.93
2018-12-26T05:41:42.649Z,39.23
2018-12-26T05:44:13.680Z,40.97
2018-12-26T05:46:44.487Z,38.27
2018-12-26T05:49:16.050Z,39.17
2018-12-26T05:51:47.423Z,43.43
2018-12-26T05:54:18.498Z,40.70
2018-12-26T05:56:49.519Z,37.30
2018-12-26T05:59:21.152Z,40.53
2018-12-26T06:01:52.420Z,40.83
2018-12-26T06:04:23.799Z,41.13
2018-12-26T06:06:55.058Z,39.13
2018-12-26T06:09:26.409Z,37.77
2018-12-26T06:11:57.735Z,37.00
2018-12-26T06:14:28.755Z,36.13
2018-12-26T06:16:59.835Z,35.53
2018-12-26T06:19:31.150Z,33.60
2018-12-26T06:22:02.769Z,33.53
2018-12-26T06:24:33.885Z,34.40
2018-12-26T06:27:05.033Z,32.63
2018-12-26T06:29:36.434Z,30.70
2018-12-26T06:32:07.542Z,35.00
2018-12-26T06:34:39.430Z,35.00
2018-12-26T06:37:10.215Z,33.13
2018-12-26T06:39:41.286Z,33.67
2018-12-26T06:42:12.462Z,31.23
2018-12-26T06:44:43.507Z,32.37
2018-12-26T06:47:15.063Z,30.60
2018-12-26T06:49:46.767Z,31.73
2018-12-26T06:52:17.931Z,32.30
2018-12-26T06:54:49.228Z,31.13
2018-12-26T06:57:20.526Z,32.53
2018-12-26T06:59:51.955Z,30.17
2018-12-26T07:02:23.014Z,32.90
2018-12-26T07:04:54.121Z,29.73
2018-12-26T07:07:25.214Z,30.47
2018-12-26T07:09:56.015Z,29.77
2018-12-26T07:12:27.151Z,31.43
2018-12-26T07:14:58.278Z,31.47
2018-12-26T07:17:29.303Z,30.83
2018-12-26T07:20:00.370Z,28.33
2018-12-26T07:22:31.756Z,29.80
2018-12-26T07:25:03.016Z,28.20
2018-12-26T07:27:34.694Z,28.37
2018-12-26T07:30:05.877Z,26.97
2018-12-26T07:32:36.890Z,29.40
2018-12-26T07:35:08.072Z,29.70
2018-12-26T07:37:39.115Z,23.70
2018-12-26T07:40:10.135Z,23.67
2018-12-26T07:42:40.926Z,29.33
2018-12-26T07:45:11.776Z,29.93
2018-12-26T07:47:43.397Z,26.87
2018-12-26T07:50:14.993Z,30.10
2018-12-26T07:52:46.320Z,29.73
2018-12-26T07:55:17.717Z,30.07
2018-12-26T07:57:49.235Z,31.97
2018-12-26T08:00:20.864Z,31.43
2018-12-26T08:02:51.707Z,32.63
2018-12-26T08:05:23.349Z,32.93
2018-12-26T08:07:54.742Z,34.47
2018-12-26T08:10:25.534Z,34.40
2018-12-26T08:12:56.610Z,33.93
2018-12-26T08:15:27.524Z,33.30
2018-12-26T08:17:58.971Z,32.13
2018-12-26T08:20:30.183Z,37.57
2018-12-26T08:23:01.865Z,34.83
2018-12-26T08:25:33.218Z,34.90
2018-12-26T08:28:04.368Z,35.03
2018-12-26T08:30:35.619Z,33.20
2018-12-26T08:33:06.717Z,35.63
2018-12-26T08:35:38.384Z,35.93
2018-12-26T08:38:09.514Z,36.23
2018-12-26T08:40:40.572Z,38.47
2018-12-26T08:43:11.590Z,37.40
2018-12-26T08:45:42.486Z,38.90
2018-12-26T08:48:13.647Z,33.27
2018-12-26T08:50:44.930Z,35.90
2018-12-26T08:53:16.370Z,36.33
2018-12-26T08:55:47.907Z,37.53
2018-12-26T08:58:19.363Z,35.73
2018-12-26T09:00:50.894Z,36.20
2018-12-26T09:03:21.979Z,35.93
2018-12-26T09:05:53.530Z,34.43
2018-12-26T09:09:01.555Z,37.00
2018-12-26T09:11:52.409Z,33.43
2018-12-26T09:14:23.454Z,37.23
2018-12-26T09:16:54.878Z,35.30
2018-12-26T09:19:25.768Z,33.87
2018-12-26T09:21:56.781Z,37.20
2018-12-26T09:24:28.077Z,37.87
2018-12-26T09:26:59.276Z,38.07
2018-12-26T09:29:30.682Z,35.53
2018-12-26T09:32:01.566Z,35.70
2018-12-26T09:34:32.459Z,37.70
2018-12-26T09:37:03.809Z,33.93
2018-12-26T09:39:34.667Z,32.77
2018-12-26T09:42:06.049Z,34.87
2018-12-26T09:44:37.679Z,37.20
2018-12-26T09:47:09.080Z,31.57
2018-12-26T09:49:40.398Z,34.67
2018-12-26T09:52:11.428Z,33.97
2018-12-26T09:54:42.497Z,36.60
2018-12-26T09:57:13.622Z,33.03
2018-12-26T09:59:44.641Z,37.17
2018-12-26T10:02:15.650Z,36.73
2018-12-26T10:04:47.140Z,35.20
2018-12-26T10:07:18.144Z,36.40
2018-12-26T10:09:49.790Z,39.43
2018-12-26T10:12:21.366Z,37.13
2018-12-26T10:14:52.543Z,35.87
2018-12-26T10:17:23.396Z,34.43
2018-12-26T10:19:54.193Z,37.53
2018-12-26T10:22:25.480Z,38.17
2018-12-26T10:24:56.327Z,38.27
2018-12-26T10:27:27.611Z,37.57
2018-12-26T10:29:58.712Z,36.97
2018-12-26T10:32:29.814Z,35.80
2018-12-26T10:35:00.924Z,36.53
2018-12-26T10:37:32.066Z,35.27
2018-12-26T10:40:03.443Z,37.40
2018-12-26T10:42:34.771Z,39.70
2018-12-26T10:45:06.617Z,41.00
2018-12-26T10:47:37.550Z,38.13
2018-12-26T10:50:10.438Z,53.43
2018-12-26T10:52:41.560Z,47.23
2018-12-26T10:55:12.601Z,45.10
2018-12-26T10:57:43.902Z,45.40
2018-12-26T11:00:15.075Z,56.07
2018-12-26T11:02:46.092Z,51.00
2018-12-26T11:05:16.871Z,49.13
2018-12-26T11:07:48.322Z,42.73
2018-12-26T11:10:19.365Z,46.53
2018-12-26T11:12:50.268Z,43.53
2018-12-26T11:15:23.091Z,54.97
2018-12-26T11:18:29.490Z,55.80
2018-12-26T11:21:19.747Z,49.13
2018-12-26T11:27:27.372Z,48.20
2018-12-26T11:30:00.170Z,45.17
2018-12-26T11:32:44.747Z,48.77
2018-12-26T11:35:52.726Z,57.17
2018-12-26T11:41:15.102Z,45.70
2018-12-26T11:43:47.789Z,75.33
2018-12-26T11:49:32.652Z,55.90
2018-12-26T11:52:07.141Z,92.07
2018-12-26T11:54:38.221Z,56.37
2018-12-26T11:57:09.011Z,51.67
2018-12-26T11:59:40.087Z,58.07
2018-12-26T12:02:11.439Z,57.20
2018-12-26T12:04:42.461Z,49.30
2018-12-26T12:10:34.253Z,45.50
2018-12-26T12:16:24.717Z,48.10
2018-12-26T12:22:28.858Z,46.73
2018-12-26T12:43:20.953Z,48.37
2018-12-26T12:45:53.640Z,45.67
2018-12-26T13:01:13.967Z,46.10
2018-12-26T13:06:45.307Z,44.53
2018-12-26T13:09:16.107Z,49.33
2018-12-26T13:15:43.107Z,48.13
2018-12-26T13:18:35.714Z,48.07
2018-12-26T13:21:06.502Z,45.73
2018-12-26T13:23:37.510Z,47.43
2018-12-26T13:26:08.535Z,47.63
2018-12-26T13:28:39.686Z,44.47
2018-12-26T13:31:10.960Z,46.90
2018-12-26T13:33:41.939Z,49.63
2018-12-26T13:36:13.305Z,49.93
2018-12-26T13:38:44.366Z,49.87
2018-12-26T13:41:15.230Z,46.80
2018-12-26T13:43:46.345Z,53.63
2018-12-26T13:46:17.662Z,54.67
2018-12-26T13:48:48.846Z,56.77
2018-12-26T13:51:20.309Z,52.37
2018-12-26T13:53:51.332Z,56.83
2018-12-26T13:56:22.704Z,57.10
2018-12-26T13:58:53.483Z,59.40
2018-12-26T14:01:24.646Z,52.37
2018-12-26T14:03:55.661Z,51.77
2018-12-26T14:06:26.737Z,60.37
2018-12-26T14:08:57.782Z,58.73
2018-12-26T14:11:29.612Z,64.93
2018-12-26T14:14:00.934Z,82.40
2018-12-26T14:16:32.106Z,63.40
2018-12-26T14:19:03.321Z,93.47
2018-12-26T14:21:34.346Z,63.67
2018-12-26T14:24:05.486Z,47.63
2018-12-26T14:26:36.902Z,48.73
2018-12-26T14:29:08.032Z,58.93
2018-12-26T14:31:39.522Z,60.03
2018-12-26T14:34:10.849Z,72.10
2018-12-26T14:36:42.287Z,60.97
2018-12-26T14:39:13.057Z,53.87
2018-12-26T14:41:44.672Z,57.20
2018-12-26T14:44:15.764Z,53.40
2018-12-26T14:46:47.201Z,67.97
2018-12-26T14:49:18.148Z,107.70
2018-12-26T14:51:50.431Z,88.33
2018-12-26T14:54:21.692Z,63.43
2018-12-26T14:56:52.819Z,59.10
2018-12-26T14:59:24.197Z,61.07
2018-12-26T15:01:55.762Z,62.73
2018-12-26T15:04:27.056Z,80.40
2018-12-26T15:06:58.397Z,59.27
2018-12-26T15:09:29.536Z,101.47
2018-12-26T15:12:00.332Z,69.87
2018-12-26T15:14:31.595Z,101.97
2018-12-26T15:17:02.729Z,97.07
2018-12-26T15:19:34.085Z,86.07
2018-12-26T15:22:05.393Z,71.13
2018-12-26T15:24:36.718Z,69.63
2018-12-26T15:27:08.491Z,67.90
2018-12-26T15:29:39.788Z,128.60
2018-12-26T15:32:11.922Z,67.13
2018-12-26T15:34:43.901Z,63.57
2018-12-26T15:37:15.506Z,59.37
2018-12-26T15:39:46.919Z,53.40
2018-12-26T15:42:18.231Z,57.93
2018-12-26T15:44:49.086Z,65.67
2018-12-26T15:47:20.646Z,57.30
2018-12-26T15:49:51.925Z,57.33
2018-12-26T15:52:23.892Z,54.40
2018-12-26T15:54:54.671Z,60.00
2018-12-26T15:57:25.699Z,59.43
2018-12-26T15:59:57.277Z,61.83
2018-12-26T16:02:28.678Z,60.40
2018-12-26T16:04:59.533Z,67.03
2018-12-26T16:07:31.000Z,89.10
2018-12-26T16:10:02.065Z,87.37
2018-12-26T16:12:33.539Z,77.87
2018-12-26T16:15:05.328Z,291.07
2018-12-26T16:17:36.702Z,75.17
2018-12-26T16:20:09.864Z,134.57
2018-12-26T16:25:54.712Z,101.83
2018-12-26T16:28:26.068Z,68.40
2018-12-26T16:31:20.493Z,152.20
2018-12-26T16:34:03.490Z,142.47
2018-12-26T16:39:36.834Z,62.50
2018-12-26T16:42:27.803Z,72.47
2018-12-26T16:44:59.347Z,76.33
2018-12-26T16:47:30.941Z,58.13
2018-12-26T16:50:02.082Z,75.10
2018-12-26T16:52:33.631Z,76.30
2018-12-26T16:55:05.472Z,127.00
2018-12-26T16:57:36.789Z,96.57
2018-12-26T17:00:08.319Z,72.27
2018-12-26T17:02:39.490Z,63.80
2018-12-26T17:08:24.641Z,57.80
2018-12-26T17:10:57.787Z,67.90
2018-12-26T17:13:28.862Z,70.50
2018-12-26T17:16:00.164Z,62.60
2018-12-26T17:18:31.030Z,95.53
2018-12-26T17:21:02.133Z,82.97
2018-12-26T17:23:33.393Z,64.97
2018-12-26T17:26:04.406Z,67.47
2018-12-26T17:28:35.659Z,65.20
2018-12-26T17:31:49.669Z,224.13
2018-12-26T17:34:20.853Z,129.47
2018-12-26T17:40:06.519Z,95.87
2018-12-26T17:42:58.437Z,139.87
2018-12-26T17:45:29.820Z,83.83
2018-12-26T17:48:02.575Z,60.40
2018-12-26T17:50:54.508Z,88.03
2018-12-26T17:54:19.972Z,82.73
2018-12-26T18:04:07.302Z,148.87
2018-12-26T18:06:58.488Z,67.97
2018-12-26T18:09:29.655Z,81.70
2018-12-26T18:19:20.298Z,124.07
2018-12-26T18:21:51.362Z,100.07
2018-12-26T18:24:22.804Z,129.53
2018-12-26T18:27:13.208Z,108.70
2018-12-26T18:33:33.770Z,188.00
2018-12-26T18:36:59.971Z,110.90
2018-12-26T18:39:33.048Z,84.53
2018-12-26T18:42:04.729Z,108.23
2018-12-26T18:44:35.538Z,122.03
2018-12-26T18:47:06.666Z,115.77
2018-12-26T18:49:37.784Z,67.97
2018-12-26T18:52:08.583Z,75.27
2018-12-26T18:54:39.974Z,143.13
2018-12-26T18:57:11.030Z,104.60
2018-12-26T18:59:42.935Z,208.17
2018-12-26T19:02:14.337Z,246.87
2018-12-26T19:04:46.386Z,158.30
2018-12-26T19:07:17.685Z,71.67
2018-12-26T19:09:48.910Z,122.53
2018-12-26T19:12:20.306Z,78.90
2018-12-26T19:14:51.346Z,91.17
2018-12-26T19:17:22.603Z,53.67
2018-12-26T19:19:53.789Z,56.67
2018-12-26T19:22:24.821Z,57.70
2018-12-26T19:24:55.979Z,50.50
2018-12-26T19:27:27.098Z,51.43
2018-12-26T19:29:59.495Z,96.43
2018-12-26T19:32:31.727Z,72.30
2018-12-26T19:35:03.482Z,70.53
2018-12-26T19:37:34.794Z,62.40
2018-12-26T19:43:54.429Z,59.67
2018-12-26T19:46:37.394Z,54.50
2018-12-26T19:49:28.064Z,48.60
2018-12-26T19:51:58.851Z,51.17
2018-12-26T19:54:29.940Z,50.90
2018-12-26T19:57:01.455Z,51.40
2018-12-26T19:59:32.727Z,49.37
2018-12-26T20:02:03.767Z,48.50
2018-12-26T20:04:35.335Z,48.27
2018-12-26T20:07:06.591Z,49.87
2018-12-26T20:09:37.724Z,49.20
2018-12-26T20:12:10.211Z,52.87
2018-12-26T20:14:41.546Z,49.50
2018-12-26T20:17:12.999Z,53.63
2018-12-26T20:19:43.807Z,57.83
2018-12-26T20:22:14.750Z,56.90
2018-12-26T20:24:46.082Z,55.77
2018-12-26T20:27:17.482Z,50.83
2018-12-26T20:29:49.207Z,57.63
2018-12-26T20:32:20.711Z,55.33
2018-12-26T20:34:51.827Z,54.93
2018-12-26T20:37:23.245Z,52.03
2018-12-26T20:39:54.679Z,50.03
2018-12-26T20:42:26.259Z,53.03
2018-12-26T20:44:57.390Z,52.03
2018-12-26T20:47:29.904Z,50.77
2018-12-26T20:50:01.386Z,48.70
2018-12-26T20:52:32.558Z,50.73
2018-12-26T20:55:03.623Z,48.80
2018-12-26T20:57:38.263Z,49.40
2018-12-26T21:00:10.730Z,48.40
2018-12-26T21:02:42.020Z,57.37
2018-12-26T21:05:12.881Z,54.70
2018-12-26T21:07:44.870Z,54.67
2018-12-26T21:10:16.038Z,52.70
2018-12-26T21:12:47.156Z,55.63
2018-12-26T21:15:18.213Z,48.43
2018-12-26T21:17:49.272Z,55.70
2018-12-26T21:20:41.707Z,56.83
2018-12-26T21:23:12.747Z,64.00
2018-12-26T21:25:43.974Z,60.20
2018-12-26T21:28:15.563Z,65.00
2018-12-26T21:30:46.482Z,72.47
2018-12-26T21:33:17.993Z,65.03
2018-12-26T21:35:49.183Z,67.23
2018-12-26T21:38:20.149Z,68.70
2018-12-26T21:40:51.640Z,66.27
2018-12-26T21:43:22.961Z,64.07
2018-12-26T21:45:54.217Z,63.40
2018-12-26T21:48:25.286Z,72.20
2018-12-26T21:50:56.467Z,106.17
2018-12-26T21:53:27.244Z,92.80
2018-12-26T21:55:58.312Z,168.97
2018-12-26T21:58:29.833Z,115.57
2018-12-26T22:01:00.954Z,438.67
2018-12-26T22:03:32.334Z,152.43
2018-12-26T22:06:03.423Z,155.67
2018-12-26T22:08:34.763Z,272.87
2018-12-26T22:11:05.601Z,174.80
2018-12-26T22:13:36.773Z,191.60
2018-12-26T22:16:08.403Z,187.13
2018-12-26T22:18:39.954Z,109.23
2018-12-26T22:21:11.428Z,134.33
2018-12-26T22:23:42.444Z,181.27
2018-12-26T22:26:13.616Z,114.70
2018-12-26T22:28:45.144Z,86.00
2018-12-26T22:31:16.502Z,85.37
2018-12-26T22:33:47.937Z,87.03
2018-12-26T22:36:19.256Z,109.10
2018-12-26T22:38:50.527Z,110.47
2018-12-26T22:41:22.683Z,91.10
2018-12-26T22:43:54.276Z,376.63
2018-12-26T22:46:25.426Z,531.03
2018-12-26T22:48:56.567Z,300.90
2018-12-26T22:51:27.968Z,157.07
2018-12-26T22:53:59.306Z,109.73
2018-12-26T22:56:30.683Z,167.83
2018-12-26T22:59:02.456Z,110.83
2018-12-26T23:01:33.911Z,125.13
2018-12-26T23:04:04.992Z,91.77
2018-12-26T23:06:36.131Z,84.33
2018-12-26T23:09:07.915Z,86.30
2018-12-26T23:11:39.374Z,73.13
2018-12-26T23:14:10.701Z,66.33
2018-12-26T23:16:41.888Z,53.00
2018-12-26T23:19:12.924Z,64.67
2018-12-26T23:21:44.014Z,80.13
2018-12-26T23:24:15.271Z,166.63
2018-12-26T23:26:46.351Z,57.43
2018-12-26T23:29:17.951Z,105.77
2018-12-26T23:31:49.287Z,87.60
2018-12-26T23:34:21.546Z,61.43
2018-12-26T23:36:52.920Z,73.33
2018-12-26T23:39:23.998Z,79.40
2018-12-26T23:41:55.220Z,86.87
2018-12-26T23:44:26.500Z,217.17
2018-12-26T23:46:57.872Z,223.40
2018-12-26T23:49:28.727Z,100.83
2018-12-26T23:52:00.014Z,147.43
2018-12-26T23:54:30.869Z,121.63
2018-12-26T23:57:01.837Z,187.03
2018-12-26T23:59:33.342Z,284.40
